createdAt,value
2022-08-03T00:02:16.712Z,22.80
2022-08-03T00:04:43.539Z,22.80
2022-08-03T00:07:11.328Z,22.90
2022-08-03T00:09:38.170Z,22.90
2022-08-03T00:12:05.261Z,22.90
2022-08-03T00:14:31.962Z,22.80
2022-08-03T00:16:59.225Z,22.80
2022-08-03T00:19:28.323Z,22.70
2022-08-03T00:21:55.072Z,22.70
2022-08-03T00:24:22.171Z,22.60
2022-08-03T00:26:49.110Z,22.60
2022-08-03T00:29:15.757Z,22.60
2022-08-03T00:31:52.903Z,22.60
2022-08-03T00:34:36.210Z,22.50
2022-08-03T00:37:12.496Z,22.60
2022-08-03T00:39:39.198Z,22.50
2022-08-03T00:42:05.869Z,22.50
2022-08-03T00:44:38.794Z,22.40
2022-08-03T00:47:05.480Z,22.40
2022-08-03T00:49:32.235Z,22.30
2022-08-03T00:52:00.602Z,22.20
2022-08-03T00:54:36.215Z,22.10
2022-08-03T00:57:05.037Z,22.00
2022-08-03T00:59:31.909Z,22.00
2022-08-03T01:01:59.643Z,22.10
2022-08-03T01:04:26.290Z,22.00
2022-08-03T01:07:14.213Z,22.00
2022-08-03T01:10:02.560Z,22.00
2022-08-03T01:12:34.861Z,22.00
2022-08-03T01:15:25.209Z,22.00
2022-08-03T01:17:57.454Z,22.00
2022-08-03T01:20:24.868Z,22.10
2022-08-03T01:23:06.687Z,22.10
2022-08-03T01:25:33.257Z,22.10
2022-08-03T01:28:18.673Z,22.00
2022-08-03T01:30:45.895Z,22.00
2022-08-03T01:33:17.433Z,22.00
2022-08-03T01:35:50.437Z,22.00
2022-08-03T01:38:31.972Z,22.00
2022-08-03T01:41:02.641Z,21.90
2022-08-03T01:44:26.629Z,21.90
2022-08-03T01:46:17.726Z,21.80
2022-08-03T01:48:45.964Z,21.80
2022-08-03T01:51:13.467Z,21.80
2022-08-03T01:53:42.895Z,21.70
2022-08-03T01:56:12.567Z,21.80
2022-08-03T01:58:40.595Z,21.80
2022-08-03T02:01:13.543Z,21.80
2022-08-03T02:03:59.805Z,21.80
2022-08-03T02:07:02.911Z,21.80
2022-08-03T02:09:17.189Z,21.70
2022-08-03T02:11:44.486Z,21.60
2022-08-03T02:14:11.368Z,21.60
2022-08-03T02:16:39.164Z,21.60
2022-08-03T02:19:07.253Z,21.60
2022-08-03T02:21:57.006Z,21.60
2022-08-03T02:24:25.072Z,21.60
2022-08-03T02:26:53.522Z,21.60
2022-08-03T02:29:21.802Z,21.50
2022-08-03T02:32:14.145Z,21.50
2022-08-03T02:34:42.400Z,21.50
2022-08-03T02:37:10.405Z,21.50
2022-08-03T02:39:37.608Z,21.50
2022-08-03T02:42:06.471Z,21.50
2022-08-03T02:44:33.565Z,21.50
2022-08-03T02:47:10.375Z,21.50
2022-08-03T02:49:50.419Z,21.50
2022-08-03T02:52:19.836Z,21.60
2022-08-03T02:54:47.660Z,21.50
2022-08-03T02:57:15.193Z,21.40
2022-08-03T02:59:43.982Z,21.30
2022-08-03T03:02:11.614Z,21.30
2022-08-03T03:05:00.505Z,21.30
2022-08-03T03:07:35.340Z,21.30
2022-08-03T03:10:23.608Z,21.30
2022-08-03T03:12:55.089Z,21.20
2022-08-03T03:15:22.718Z,21.30
2022-08-03T03:17:50.141Z,21.20
2022-08-03T03:20:29.164Z,21.20
2022-08-03T03:22:59.058Z,21.20
2022-08-03T03:25:26.086Z,21.10
2022-08-03T03:27:55.120Z,21.00
2022-08-03T03:30:26.972Z,21.00
2022-08-03T03:32:58.341Z,20.90
2022-08-03T03:35:26.578Z,20.90
2022-08-03T03:37:54.909Z,20.90
2022-08-03T03:40:22.034Z,20.90
2022-08-03T03:42:50.230Z,20.90
2022-08-03T03:45:17.999Z,20.80
2022-08-03T03:47:46.821Z,20.80
2022-08-03T03:50:15.171Z,20.80
2022-08-03T03:52:41.984Z,20.80
2022-08-03T03:55:09.335Z,20.80
2022-08-03T03:57:37.808Z,20.80
2022-08-03T04:00:04.672Z,20.80
2022-08-03T04:02:31.490Z,20.80
2022-08-03T04:05:18.911Z,20.90
2022-08-03T04:08:07.384Z,20.80
2022-08-03T04:10:54.714Z,20.80
2022-08-03T04:13:21.931Z,20.80
2022-08-03T04:15:48.700Z,20.70
2022-08-03T04:18:15.596Z,20.60
2022-08-03T04:20:45.527Z,20.60
2022-08-03T04:23:15.807Z,20.70
2022-08-03T04:25:43.631Z,20.70
2022-08-03T04:28:31.406Z,20.80
2022-08-03T04:30:57.967Z,20.80
2022-08-03T04:33:29.400Z,20.80
2022-08-03T04:36:01.485Z,20.90
2022-08-03T04:38:31.662Z,20.90
2022-08-03T04:40:59.220Z,20.90
2022-08-03T04:43:27.151Z,21.00
2022-08-03T04:45:57.093Z,21.00
2022-08-03T04:48:24.372Z,21.00
2022-08-03T04:50:51.273Z,21.00
2022-08-03T04:53:18.245Z,21.10
2022-08-03T04:55:46.773Z,21.10
2022-08-03T04:58:13.477Z,21.20
2022-08-03T05:00:42.170Z,21.30
2022-08-03T05:03:23.769Z,21.30
2022-08-03T05:06:01.709Z,21.40
2022-08-03T05:08:28.910Z,21.50
2022-08-03T05:10:59.123Z,21.60
2022-08-03T05:13:26.417Z,21.70
2022-08-03T05:15:54.280Z,21.80
2022-08-03T05:18:22.047Z,21.90
2022-08-03T05:20:48.669Z,22.10
2022-08-03T05:23:15.399Z,22.30
2022-08-03T05:25:49.830Z,22.40
2022-08-03T05:28:16.944Z,22.60
2022-08-03T05:30:43.774Z,22.80
2022-08-03T05:33:10.939Z,23.10
2022-08-03T05:36:00.848Z,23.30
2022-08-03T05:38:28.559Z,23.50
2022-08-03T05:40:57.579Z,23.80
2022-08-03T05:43:43.209Z,24.10
2022-08-03T05:46:12.829Z,25.20
2022-08-03T05:48:40.085Z,26.30
2022-08-03T05:51:07.836Z,27.30
2022-08-03T05:53:34.605Z,28.30
2022-08-03T05:56:02.737Z,29.10
2022-08-03T05:58:41.993Z,29.90
2022-08-03T06:01:08.709Z,30.60
2022-08-03T06:03:35.365Z,31.10
2022-08-03T06:06:01.988Z,31.50
2022-08-03T06:08:28.640Z,32.20
2022-08-03T06:10:55.346Z,32.90
2022-08-03T06:13:22.091Z,33.30
2022-08-03T06:15:50.839Z,33.70
2022-08-03T06:18:17.642Z,33.60
2022-08-03T06:20:45.376Z,33.90
2022-08-03T06:23:16.173Z,34.10
2022-08-03T06:25:44.635Z,34.30
2022-08-03T06:28:35.220Z,34.80
2022-08-03T06:31:01.199Z,34.90
2022-08-03T06:34:31.508Z,34.60
2022-08-03T06:36:15.101Z,35.20
2022-08-03T06:38:43.050Z,35.50
2022-08-03T06:41:09.676Z,35.70
2022-08-03T06:43:37.976Z,36.30
2022-08-03T06:46:06.033Z,36.90
2022-08-03T06:48:33.914Z,37.30
2022-08-03T06:51:00.540Z,37.70
2022-08-03T06:53:27.362Z,38.20
2022-08-03T06:55:55.202Z,38.60
2022-08-03T06:58:22.535Z,38.60
2022-08-03T07:00:49.374Z,38.50
2022-08-03T07:03:16.385Z,38.70
2022-08-03T07:05:47.430Z,38.60
2022-08-03T07:08:14.308Z,39.00
2022-08-03T07:10:41.197Z,39.10
2022-08-03T07:13:08.021Z,39.30
2022-08-03T07:15:54.095Z,38.90
2022-08-03T07:18:25.682Z,39.00
2022-08-03T07:20:59.943Z,38.50
2022-08-03T07:23:27.544Z,38.10
2022-08-03T07:25:57.245Z,38.50
2022-08-03T07:28:23.888Z,39.10
2022-08-03T07:30:51.620Z,39.20
2022-08-03T07:33:18.274Z,38.90
2022-08-03T07:35:45.099Z,38.10
2022-08-03T07:38:11.657Z,37.80
2022-08-03T07:40:43.166Z,38.10
2022-08-03T07:43:12.543Z,38.50
2022-08-03T07:45:39.131Z,39.50
2022-08-03T07:48:11.634Z,39.70
2022-08-03T07:50:38.997Z,39.60
2022-08-03T07:53:05.829Z,39.30
2022-08-03T07:55:32.589Z,39.70
2022-08-03T07:58:04.120Z,39.80
2022-08-03T08:00:31.358Z,40.20
2022-08-03T08:02:58.100Z,39.80
2022-08-03T08:05:26.019Z,39.10
2022-08-03T08:07:53.482Z,39.50
2022-08-03T08:10:20.396Z,39.90
2022-08-03T08:12:47.466Z,39.80
2022-08-03T08:15:14.505Z,40.90
2022-08-03T08:17:45.727Z,40.80
2022-08-03T08:20:16.158Z,41.20
2022-08-03T08:22:49.585Z,41.50
2022-08-03T08:25:19.384Z,42.00
2022-08-03T08:28:29.508Z,42.50
2022-08-03T08:30:41.337Z,41.80
2022-08-03T08:33:22.432Z,41.30
2022-08-03T08:35:53.435Z,41.90
2022-08-03T08:38:20.765Z,42.80
2022-08-03T08:40:51.110Z,42.90
2022-08-03T08:43:18.085Z,42.60
2022-08-03T08:45:45.434Z,42.30
2022-08-03T08:48:13.730Z,42.70
2022-08-03T08:50:43.396Z,43.40
2022-08-03T08:53:18.173Z,43.10
2022-08-03T08:55:59.694Z,44.00
2022-08-03T08:58:55.019Z,43.50
2022-08-03T09:01:23.046Z,43.80
2022-08-03T09:03:51.426Z,44.50
2022-08-03T09:06:18.667Z,44.80
2022-08-03T09:08:49.212Z,45.70
2022-08-03T09:11:16.646Z,46.00
2022-08-03T09:22:55.521Z,45.10
2022-08-03T09:49:15.841Z,46.20
2022-08-03T09:52:33.115Z,46.50
2022-08-03T10:13:00.973Z,45.50
2022-08-03T10:20:12.467Z,46.30
2022-08-03T10:32:17.461Z,45.60
2022-08-03T10:34:45.072Z,45.90
2022-08-03T10:40:07.821Z,46.30
2022-08-03T10:43:23.559Z,45.80
2022-08-03T10:49:40.753Z,46.50
2022-08-03T10:52:32.981Z,45.60
2022-08-03T10:55:25.972Z,44.40
2022-08-03T11:20:12.770Z,46.40
2022-08-03T11:24:03.420Z,46.40
2022-08-03T11:30:02.228Z,46.50
2022-08-03T11:32:38.332Z,47.20
2022-08-03T11:35:09.167Z,46.70
2022-08-03T11:37:36.279Z,46.20
2022-08-03T11:40:03.587Z,45.70
2022-08-03T11:42:33.262Z,45.50
2022-08-03T11:45:00.855Z,45.80
2022-08-03T11:47:28.298Z,45.90
2022-08-03T11:49:57.434Z,45.70
2022-08-03T11:52:27.251Z,45.80
2022-08-03T11:54:57.097Z,45.60
2022-08-03T11:59:18.964Z,45.80
2022-08-03T12:00:29.270Z,45.90
2022-08-03T12:02:57.465Z,45.80
2022-08-03T12:05:51.909Z,45.70
2022-08-03T12:08:30.043Z,45.20
2022-08-03T12:10:57.422Z,44.50
2022-08-03T12:14:44.927Z,44.60
2022-08-03T12:16:23.090Z,44.50
2022-08-03T12:18:56.831Z,44.30
2022-08-03T12:21:25.024Z,44.30
2022-08-03T12:23:55.969Z,44.60
2022-08-03T12:26:22.595Z,44.80
2022-08-03T12:28:49.983Z,44.40
2022-08-03T12:31:16.995Z,44.40
2022-08-03T12:33:58.861Z,44.60
2022-08-03T12:36:26.543Z,44.50
2022-08-03T12:38:57.795Z,44.60
2022-08-03T12:41:35.372Z,44.50
2022-08-03T12:44:03.527Z,44.00
2022-08-03T12:46:31.855Z,43.60
2022-08-03T12:49:01.566Z,43.80
2022-08-03T12:51:28.761Z,43.50
2022-08-03T12:53:56.148Z,43.50
2022-08-03T12:56:23.116Z,43.40
2022-08-03T12:58:54.017Z,43.40
2022-08-03T13:01:22.610Z,43.30
2022-08-03T13:03:52.926Z,43.20
2022-08-03T13:06:26.601Z,43.30
2022-08-03T13:09:07.051Z,43.40
2022-08-03T13:11:55.564Z,43.20
2022-08-03T13:14:20.812Z,43.40
2022-08-03T13:16:51.033Z,43.30
2022-08-03T13:19:17.686Z,42.80
2022-08-03T13:22:01.835Z,42.60
2022-08-03T13:24:32.180Z,42.50
2022-08-03T13:26:59.375Z,42.70
2022-08-03T13:29:26.148Z,42.30
2022-08-03T13:31:55.235Z,42.20
2022-08-03T13:34:24.921Z,42.30
2022-08-03T13:37:08.343Z,42.30
2022-08-03T13:39:57.578Z,42.00
2022-08-03T13:42:22.522Z,41.60
2022-08-03T13:44:51.354Z,41.60
2022-08-03T13:47:18.130Z,41.50
2022-08-03T13:49:59.950Z,41.40
2022-08-03T13:52:27.830Z,41.10
2022-08-03T13:54:54.570Z,40.40
2022-08-03T13:58:04.142Z,40.00
2022-08-03T14:00:09.442Z,39.50
2022-08-03T14:02:38.300Z,38.80
2022-08-03T14:05:05.411Z,38.40
2022-08-03T14:07:32.239Z,37.90
2022-08-03T14:09:58.986Z,37.20
2022-08-03T14:12:26.667Z,36.80
2022-08-03T14:14:58.372Z,36.50
2022-08-03T14:17:28.144Z,36.00
2022-08-03T14:20:36.609Z,35.40
2022-08-03T14:22:56.333Z,35.30
2022-08-03T14:25:23.115Z,35.30
2022-08-03T14:27:49.862Z,35.00
2022-08-03T14:30:16.708Z,35.00
2022-08-03T14:32:43.380Z,35.10
2022-08-03T14:35:11.162Z,34.80
2022-08-03T14:37:37.958Z,34.50
2022-08-03T14:40:07.225Z,34.40
2022-08-03T14:42:34.016Z,34.40
2022-08-03T14:45:03.618Z,34.50
2022-08-03T14:47:34.163Z,34.60
2022-08-03T14:50:31.836Z,34.60
2022-08-03T14:53:07.560Z,34.30
2022-08-03T14:55:38.928Z,34.30
2022-08-03T14:58:19.786Z,34.20
2022-08-03T15:00:49.959Z,34.10
2022-08-03T15:03:17.599Z,34.00
2022-08-03T15:05:44.653Z,34.00
2022-08-03T15:08:11.313Z,33.80
2022-08-03T15:10:44.117Z,33.90
2022-08-03T15:13:11.540Z,33.90
2022-08-03T15:15:38.460Z,34.20
2022-08-03T15:18:05.112Z,34.00
2022-08-03T15:20:43.229Z,33.90
2022-08-03T15:23:11.003Z,34.00
2022-08-03T15:26:06.493Z,34.20
2022-08-03T15:28:24.492Z,34.00
2022-08-03T15:30:51.956Z,33.90
2022-08-03T15:33:18.646Z,34.10
2022-08-03T15:35:47.132Z,34.10
2022-08-03T15:38:13.842Z,33.80
2022-08-03T15:40:41.800Z,33.70
2022-08-03T15:43:08.455Z,33.70
2022-08-03T15:45:36.682Z,33.70
2022-08-03T15:48:04.660Z,33.80
2022-08-03T15:50:31.412Z,33.60
2022-08-03T15:52:58.026Z,33.50
2022-08-03T15:55:27.239Z,33.50
2022-08-03T15:59:09.545Z,33.50
2022-08-03T16:00:43.952Z,33.40
2022-08-03T16:03:12.724Z,33.40
2022-08-03T16:05:39.454Z,33.40
2022-08-03T16:08:10.270Z,33.40
2022-08-03T16:10:40.694Z,33.30
2022-08-03T16:13:07.566Z,33.30
2022-08-03T16:15:34.426Z,33.20
2022-08-03T16:18:06.172Z,33.20
2022-08-03T16:20:34.377Z,33.10
2022-08-03T16:23:10.717Z,33.10
2022-08-03T16:25:42.205Z,33.10
2022-08-03T16:33:08.123Z,32.70
2022-08-03T16:35:34.795Z,32.60
2022-08-03T16:38:04.378Z,32.60
2022-08-03T16:40:33.616Z,32.50
2022-08-03T16:43:00.357Z,32.60
2022-08-03T16:45:27.001Z,32.30
2022-08-03T16:48:05.410Z,32.20
2022-08-03T16:50:33.092Z,32.20
2022-08-03T16:52:59.846Z,32.10
2022-08-03T16:55:43.018Z,31.90
2022-08-03T16:58:15.029Z,32.00
2022-08-03T17:00:43.839Z,32.00
2022-08-03T17:03:20.597Z,32.00
2022-08-03T17:05:51.104Z,32.10
2022-08-03T17:08:26.456Z,32.10
2022-08-03T17:10:55.070Z,32.10
2022-08-03T17:13:22.848Z,31.90
2022-08-03T17:16:01.206Z,31.70
2022-08-03T17:18:32.419Z,31.30
2022-08-03T17:21:03.291Z,31.00
2022-08-03T17:23:38.479Z,30.90
2022-08-03T17:26:20.209Z,30.70
2022-08-03T17:28:58.217Z,30.60
2022-08-03T17:34:00.349Z,30.30
2022-08-03T17:36:41.935Z,30.20
2022-08-03T17:39:14.472Z,30.10
2022-08-03T17:41:49.995Z,30.00
2022-08-03T17:44:31.165Z,30.00
2022-08-03T17:47:07.151Z,29.90
2022-08-03T17:49:39.775Z,29.90
2022-08-03T17:52:17.383Z,29.80
2022-08-03T17:55:50.851Z,29.70
2022-08-03T17:58:08.305Z,29.60
2022-08-03T18:00:54.163Z,29.60
2022-08-03T18:03:58.112Z,29.50
2022-08-03T18:06:33.361Z,29.50
2022-08-03T18:09:05.378Z,29.40
2022-08-03T18:11:51.747Z,29.40
2022-08-03T18:14:37.589Z,29.40
2022-08-03T18:17:10.289Z,29.30
2022-08-03T18:20:03.681Z,29.20
2022-08-03T18:22:26.726Z,29.20
2022-08-03T18:24:54.797Z,29.20
2022-08-03T18:27:45.648Z,29.10
2022-08-03T18:30:17.319Z,29.10
2022-08-03T18:32:44.231Z,29.00
2022-08-03T18:35:28.362Z,29.00
2022-08-03T18:38:15.646Z,28.90
2022-08-03T18:40:48.800Z,28.80
2022-08-03T18:43:17.485Z,28.80
2022-08-03T18:45:56.212Z,28.80
2022-08-03T18:48:30.689Z,28.70
2022-08-03T18:51:06.951Z,28.60
2022-08-03T18:54:02.676Z,28.60
2022-08-03T18:56:20.569Z,28.50
2022-08-03T18:59:02.811Z,28.50
2022-08-03T19:01:58.129Z,28.50
2022-08-03T19:04:33.532Z,28.50
2022-08-03T19:07:02.640Z,28.40
2022-08-03T19:09:37.251Z,28.30
2022-08-03T19:12:14.185Z,28.20
2022-08-03T19:15:00.109Z,28.20
2022-08-03T19:17:29.444Z,28.10
2022-08-03T19:20:01.552Z,28.00
2022-08-03T19:22:28.924Z,28.00
2022-08-03T19:24:58.981Z,27.90
2022-08-03T19:27:27.931Z,27.90
2022-08-03T19:29:59.583Z,27.90
2022-08-03T19:32:29.555Z,27.80
2022-08-03T19:34:59.425Z,27.80
2022-08-03T19:37:38.674Z,27.80
2022-08-03T19:40:10.982Z,27.80
2022-08-03T19:42:41.658Z,27.80
2022-08-03T19:45:11.385Z,27.70
2022-08-03T19:47:56.850Z,27.70
2022-08-03T19:50:26.816Z,27.70
2022-08-03T19:52:58.592Z,27.70
2022-08-03T19:55:28.387Z,27.60
2022-08-03T19:58:01.818Z,27.60
2022-08-03T20:00:30.505Z,27.60
2022-08-03T20:03:04.753Z,27.60
2022-08-03T20:05:52.158Z,27.50
2022-08-03T20:08:21.098Z,27.50
2022-08-03T20:10:48.105Z,27.40
2022-08-03T20:13:19.389Z,27.40
2022-08-03T20:15:46.471Z,27.40
2022-08-03T20:18:16.946Z,27.40
2022-08-03T20:20:47.300Z,27.40
2022-08-03T20:23:16.367Z,27.40
2022-08-03T20:25:58.188Z,27.40
2022-08-03T20:28:50.214Z,27.40
2022-08-03T20:31:18.546Z,27.30
2022-08-03T20:33:48.498Z,27.30
2022-08-03T20:36:17.822Z,27.30
2022-08-03T20:38:48.497Z,27.20
2022-08-03T20:41:18.881Z,27.20
2022-08-03T20:43:49.243Z,27.20
2022-08-03T20:46:30.999Z,27.20
2022-08-03T20:49:04.563Z,27.20
2022-08-03T20:51:49.820Z,27.10
2022-08-03T20:54:28.876Z,27.10
2022-08-03T20:57:07.120Z,27.00
2022-08-03T20:59:50.860Z,27.00
2022-08-03T21:02:30.542Z,27.00
2022-08-03T21:05:02.994Z,27.00
2022-08-03T21:08:04.139Z,26.90
2022-08-03T21:10:18.267Z,26.90
2022-08-03T21:12:50.965Z,26.90
2022-08-03T21:16:02.345Z,26.90
2022-08-03T21:18:05.999Z,26.80
2022-08-03T21:20:34.478Z,26.80
2022-08-03T21:23:01.373Z,26.70
2022-08-03T21:25:30.168Z,26.70
2022-08-03T21:27:56.877Z,26.70
2022-08-03T21:30:25.437Z,26.70
2022-08-03T21:32:52.919Z,26.60
2022-08-03T21:35:20.779Z,26.60
2022-08-03T21:37:47.865Z,26.50
2022-08-03T21:40:16.970Z,26.40
2022-08-03T21:42:44.981Z,26.50
2022-08-03T21:45:16.843Z,26.50
2022-08-03T21:47:44.170Z,26.50
2022-08-03T21:50:13.248Z,26.50
2022-08-03T21:52:41.980Z,26.50
2022-08-03T21:55:20.410Z,26.50
2022-08-03T21:57:51.597Z,26.50
2022-08-03T22:00:20.624Z,26.40
2022-08-03T22:02:56.083Z,26.40
2022-08-03T22:05:29.101Z,26.50
2022-08-03T22:08:10.791Z,26.40
2022-08-03T22:10:37.890Z,26.40
2022-08-03T22:13:04.670Z,26.40
2022-08-03T22:15:31.829Z,26.40
2022-08-03T22:17:59.048Z,26.40
2022-08-03T22:20:25.750Z,26.30
2022-08-03T22:22:55.923Z,26.30
2022-08-03T22:25:29.055Z,26.30
2022-08-03T22:27:56.276Z,26.30
2022-08-03T22:30:22.875Z,26.20
2022-08-03T22:32:50.996Z,26.20
2022-08-03T22:35:18.225Z,26.20
2022-08-03T22:37:45.398Z,26.20
2022-08-03T22:40:14.777Z,26.10
2022-08-03T22:42:42.154Z,26.10
2022-08-03T22:45:09.058Z,26.10
2022-08-03T22:47:36.939Z,26.10
2022-08-03T22:50:33.363Z,26.00
2022-08-03T22:52:54.369Z,26.00
2022-08-03T22:55:24.845Z,26.00
2022-08-03T22:57:55.693Z,26.00
2022-08-03T23:00:23.657Z,26.00
2022-08-03T23:02:51.165Z,26.00
2022-08-03T23:06:02.188Z,25.90
2022-08-03T23:08:12.181Z,26.00
2022-08-03T23:10:43.738Z,25.90
2022-08-03T23:13:14.484Z,25.80
2022-08-03T23:15:49.782Z,25.80
2022-08-03T23:18:17.032Z,25.80
2022-08-03T23:20:44.770Z,25.70
2022-08-03T23:23:14.354Z,25.70
2022-08-03T23:25:49.498Z,25.60
2022-08-03T23:28:16.467Z,25.60
2022-08-03T23:30:44.405Z,25.60
2022-08-03T23:33:12.379Z,25.60
2022-08-03T23:36:17.181Z,25.50
2022-08-03T23:38:46.123Z,25.40
2022-08-03T23:41:13.468Z,25.40
2022-08-03T23:43:51.502Z,25.40
2022-08-03T23:46:20.001Z,25.40
2022-08-03T23:48:46.602Z,25.40
2022-08-03T23:51:19.486Z,25.40
2022-08-03T23:53:57.681Z,25.30
2022-08-03T23:56:40.145Z,25.20
2022-08-03T23:59:23.954Z,25.20
